This is the latest recevied weather packets stored in our database for station/object E22ZMG-1. If no packets are shown the sender has not sent any weather packets the latest 1 day(s).
| Time | Temp. | Humidity | Pressure | Rain* | Wind** | Luminosity | Snow |
|---|---|---|---|---|---|---|---|
| 1778061011 | 37.78° C | 43% | 970 hPa | - | - | 0 W/m² | - |
| 1778060386 | 36.67° C | 47% | 970 hPa | - | - | 0 W/m² | - |
| 1778059136 | 38.33° C | 43% | 970 hPa | - | - | 0 W/m² | - |
| 1778057886 | 37.78° C | 44% | 970 hPa | - | - | 0 W/m² | - |
| 1778057260 | 37.22° C | 46% | 971 hPa | - | - | 0 W/m² | - |
| 1778055386 | 37.78° C | 43% | 971 hPa | - | - | 0 W/m² | - |
| 1778054762 | 39.44° C | 40% | 971 hPa | - | - | 0 W/m² | - |
| 1778054136 | 40° C | 40% | 971 hPa | - | - | 0 W/m² | - |
| 1778053510 | 39.44° C | 39% | 971 hPa | - | - | 0 W/m² | - |
| 1778051634 | 38.89° C | 41% | 972 hPa | - | - | 0 W/m² | - |
| 1778051009 | 40.56° C | 34% | 972 hPa | - | - | 0 W/m² | - |
| 1778050384 | 41.67° C | 33% | 972 hPa | - | - | 0 W/m² | - |
| 1778048509 | 42.78° C | 32% | 973 hPa | - | - | 0 W/m² | - |
| 1778047884 | 42.22° C | 33% | 973 hPa | - | - | 0 W/m² | - |
| 1778047259 | 41.11° C | 35% | 973 hPa | - | - | 0 W/m² | - |
| 1778046633 | 41.11° C | 35% | 973 hPa | - | - | 0 W/m² | - |
| 1778045382 | 41.67° C | 35% | 974 hPa | - | - | 0 W/m² | - |
| 1778044756 | 40° C | 36% | 974 hPa | - | - | 0 W/m² | - |
| 1778044131 | 41.11° C | 35% | 974 hPa | - | - | 0 W/m² | - |
| 1778043506 | 40° C | 36% | 974 hPa | - | - | 0 W/m² | - |
| 1778042880 | 41.11° C | 35% | 974 hPa | - | - | 0 W/m² | - |
| 1778041630 | 40.56° C | 36% | 975 hPa | - | - | 0 W/m² | - |
| 1778041003 | 40.56° C | 37% | 975 hPa | - | - | 0 W/m² | - |
| 1778040377 | 39.44° C | 38% | 975 hPa | - | - | 0 W/m² | - |
| 1778039126 | 38.89° C | 40% | 975 hPa | - | - | 0 W/m² | - |
* Rain since midnight (hover to see other rain measurements)
** Current wind speed in m/s (hover to see current wind gust speed)